createdAt,value
2023-01-23T00:01:22.539Z,5.10
2023-01-23T00:03:49.459Z,5.70
2023-01-23T00:06:18.226Z,5.97
2023-01-23T00:08:46.554Z,5.47
2023-01-23T00:11:19.028Z,5.45
2023-01-23T00:13:46.169Z,4.22
2023-01-23T00:16:19.648Z,5.68
2023-01-23T00:18:47.299Z,5.15
2023-01-23T00:21:23.319Z,5.68
2023-01-23T00:23:52.475Z,4.57
2023-01-23T00:26:22.179Z,4.70
2023-01-23T00:28:50.684Z,4.20
2023-01-23T00:31:22.634Z,4.80
2023-01-23T00:33:54.546Z,5.38
2023-01-23T00:36:23.341Z,5.57
2023-01-23T00:38:50.187Z,4.82
2023-01-23T00:41:17.225Z,5.53
2023-01-23T00:43:47.134Z,5.93
2023-01-23T00:46:14.647Z,5.53
2023-01-23T00:48:48.039Z,4.65
2023-01-23T00:51:15.374Z,4.50
2023-01-23T00:53:42.365Z,5.00
2023-01-23T00:56:09.509Z,5.50
2023-01-23T00:58:36.617Z,6.03
2023-01-23T01:01:03.834Z,5.03
2023-01-23T01:03:32.086Z,5.32
2023-01-23T01:05:59.268Z,4.90
2023-01-23T01:08:28.391Z,5.93
2023-01-23T01:10:59.202Z,5.28
2023-01-23T01:13:26.632Z,4.82
2023-01-23T01:15:54.239Z,6.20
2023-01-23T01:18:23.117Z,5.50
2023-01-23T01:20:51.490Z,5.50
2023-01-23T01:23:19.282Z,5.07
2023-01-23T01:25:46.939Z,5.88
2023-01-23T01:28:15.595Z,6.32
2023-01-23T01:30:42.365Z,5.85
2023-01-23T01:33:11.163Z,5.68
2023-01-23T01:35:41.133Z,6.07
2023-01-23T01:38:09.088Z,4.97
2023-01-23T01:40:36.749Z,5.32
2023-01-23T01:43:07.281Z,5.97
2023-01-23T01:46:08.324Z,5.22
2023-01-23T01:48:47.652Z,5.90
2023-01-23T01:51:22.930Z,6.50
2023-01-23T01:54:11.921Z,6.60
2023-01-23T01:56:49.320Z,6.93
2023-01-23T01:59:18.952Z,6.05
2023-01-23T02:01:50.091Z,5.97
2023-01-23T02:04:18.023Z,4.88
2023-01-23T02:06:45.358Z,5.05
2023-01-23T02:09:17.318Z,6.45
2023-01-23T02:11:44.247Z,5.55
2023-01-23T02:14:14.537Z,5.18
2023-01-23T02:16:46.531Z,5.20
2023-01-23T02:19:38.280Z,4.43
2023-01-23T02:22:19.074Z,5.25
2023-01-23T02:25:27.769Z,5.35
2023-01-23T02:27:54.807Z,4.57
2023-01-23T02:30:25.178Z,4.68
2023-01-23T02:32:54.248Z,4.95
2023-01-23T02:35:31.302Z,5.05
2023-01-23T02:38:06.466Z,5.10
2023-01-23T02:40:38.831Z,6.07
2023-01-23T02:43:15.203Z,6.05
2023-01-23T02:45:50.567Z,5.85
2023-01-23T02:48:18.385Z,5.72
2023-01-23T02:50:46.477Z,4.90
2023-01-23T02:53:13.783Z,5.70
2023-01-23T02:55:45.082Z,5.07
2023-01-23T03:00:58.188Z,5.88
2023-01-23T03:03:25.347Z,5.72
2023-01-23T03:05:55.631Z,5.38
2023-01-23T03:08:22.491Z,5.80
2023-01-23T03:10:50.487Z,5.43
2023-01-23T03:13:17.395Z,5.47
2023-01-23T03:15:44.237Z,5.00
2023-01-23T03:18:10.914Z,6.32
2023-01-23T03:20:41.353Z,6.05
2023-01-23T03:23:09.204Z,5.80
2023-01-23T03:25:35.904Z,6.53
2023-01-23T03:28:24.470Z,5.65
2023-01-23T03:30:51.072Z,5.43
2023-01-23T03:33:17.751Z,6.30
2023-01-23T03:35:44.377Z,5.35
2023-01-23T03:38:11.579Z,6.72
2023-01-23T03:40:56.980Z,5.78
2023-01-23T03:43:23.739Z,6.97
2023-01-23T03:45:50.604Z,6.55
2023-01-23T03:48:20.151Z,6.13
2023-01-23T03:50:47.353Z,6.13
2023-01-23T03:53:16.241Z,5.95
2023-01-23T03:55:45.861Z,5.80
2023-01-23T03:58:13.131Z,6.72
2023-01-23T04:00:45.067Z,6.70
2023-01-23T04:03:11.770Z,5.63
2023-01-23T04:05:39.311Z,6.50
2023-01-23T04:08:06.124Z,6.45
2023-01-23T04:10:33.123Z,5.78
2023-01-23T04:13:04.260Z,6.03
2023-01-23T04:15:34.677Z,6.65
2023-01-23T04:18:04.684Z,5.00
2023-01-23T04:20:33.737Z,4.60
2023-01-23T04:23:00.458Z,6.60
2023-01-23T04:25:29.360Z,6.60
2023-01-23T04:27:58.309Z,6.78
2023-01-23T04:30:24.984Z,6.75
2023-01-23T04:32:51.778Z,6.30
2023-01-23T04:35:19.571Z,7.00
2023-01-23T04:37:50.783Z,7.88
2023-01-23T04:40:18.777Z,6.07
2023-01-23T04:42:55.942Z,6.95
2023-01-23T04:45:30.774Z,5.78
2023-01-23T04:48:07.179Z,7.07
2023-01-23T04:50:36.249Z,5.93
2023-01-23T04:53:03.978Z,5.57
2023-01-23T04:55:31.565Z,7.03
2023-01-23T04:57:59.187Z,6.82
2023-01-23T05:01:23.321Z,6.57
2023-01-23T05:03:54.620Z,6.63
2023-01-23T05:06:21.899Z,6.65
2023-01-23T05:08:50.429Z,8.32
2023-01-23T05:11:24.822Z,7.05
2023-01-23T05:13:52.417Z,5.85
2023-01-23T05:16:21.082Z,6.75
2023-01-23T05:19:14.060Z,6.53
2023-01-23T05:21:41.121Z,7.88
2023-01-23T05:24:11.677Z,7.22
2023-01-23T05:26:39.799Z,7.13
2023-01-23T05:29:06.941Z,7.20
2023-01-23T05:31:37.212Z,7.63
2023-01-23T05:34:36.496Z,7.07
2023-01-23T05:37:05.709Z,6.78
2023-01-23T05:39:43.188Z,7.53
2023-01-23T05:42:09.893Z,7.20
2023-01-23T05:44:59.339Z,8.30
2023-01-23T05:47:37.300Z,7.43
2023-01-23T05:50:08.107Z,7.97
2023-01-23T05:52:36.673Z,7.32
2023-01-23T05:55:08.919Z,7.43
2023-01-23T05:57:38.204Z,7.18
2023-01-23T06:00:27.895Z,7.00
2023-01-23T06:03:14.572Z,6.38
2023-01-23T06:06:04.391Z,8.25
2023-01-23T06:08:31.984Z,8.57
2023-01-23T06:10:59.760Z,7.65
2023-01-23T06:13:28.576Z,8.43
2023-01-23T06:15:56.809Z,8.00
2023-01-23T06:18:25.925Z,6.90
2023-01-23T06:21:01.041Z,7.80
2023-01-23T06:23:29.087Z,7.97
2023-01-23T06:26:02.985Z,7.72
2023-01-23T06:28:30.780Z,6.82
2023-01-23T06:31:01.963Z,8.07
2023-01-23T06:33:38.987Z,7.95
2023-01-23T06:36:12.259Z,7.45
2023-01-23T06:38:39.201Z,7.78
2023-01-23T06:41:10.571Z,8.10
2023-01-23T06:43:40.568Z,5.63
2023-01-23T06:46:14.171Z,6.57
2023-01-23T06:48:41.959Z,8.35
2023-01-23T06:51:08.963Z,8.23
2023-01-23T06:53:35.990Z,7.03
2023-01-23T06:56:07.109Z,8.35
2023-01-23T06:58:39.200Z,8.57
2023-01-23T07:01:16.045Z,8.40
2023-01-23T07:04:18.185Z,8.60
2023-01-23T07:06:47.290Z,7.95
2023-01-23T07:09:16.131Z,9.18
2023-01-23T07:11:48.917Z,8.65
2023-01-23T07:14:17.098Z,8.55
2023-01-23T07:16:47.638Z,8.48
2023-01-23T07:19:15.650Z,8.77
2023-01-23T07:21:44.053Z,9.07
2023-01-23T07:24:10.869Z,8.95
2023-01-23T07:26:37.603Z,9.73
2023-01-23T07:29:05.843Z,9.45
2023-01-23T07:31:32.485Z,9.25
2023-01-23T07:34:11.593Z,9.35
2023-01-23T07:36:38.296Z,10.07
2023-01-23T07:39:18.413Z,12.15
2023-01-23T07:41:46.470Z,13.68
2023-01-23T07:44:18.323Z,9.80
2023-01-23T07:46:46.478Z,10.50
2023-01-23T07:49:15.761Z,9.23
2023-01-23T07:51:42.489Z,9.63
2023-01-23T07:54:10.515Z,10.05
2023-01-23T07:56:37.382Z,8.73
2023-01-23T07:59:04.124Z,9.52
2023-01-23T08:01:32.816Z,9.02
2023-01-23T08:03:59.705Z,9.93
2023-01-23T08:06:27.523Z,10.00
2023-01-23T08:08:54.466Z,8.38
2023-01-23T08:11:21.238Z,9.60
2023-01-23T08:13:51.151Z,10.90
2023-01-23T08:16:19.495Z,10.25
2023-01-23T08:18:48.051Z,9.93
2023-01-23T08:21:16.583Z,10.77
2023-01-23T08:23:46.871Z,9.82
2023-01-23T08:26:16.484Z,9.93
2023-01-23T08:28:45.038Z,9.43
2023-01-23T08:31:13.018Z,9.45
2023-01-23T08:33:40.448Z,9.48
2023-01-23T08:36:11.174Z,10.80
2023-01-23T08:38:38.367Z,10.60
2023-01-23T08:41:05.451Z,9.23
2023-01-23T08:43:32.925Z,9.68
2023-01-23T08:46:00.233Z,9.85
2023-01-23T08:48:28.438Z,9.60
2023-01-23T08:51:07.149Z,10.68
2023-01-23T08:53:34.939Z,10.02
2023-01-23T08:56:16.706Z,9.23
2023-01-23T08:58:46.135Z,10.20
2023-01-23T09:01:14.191Z,9.27
2023-01-23T09:03:41.046Z,10.68
2023-01-23T09:06:09.036Z,8.57
2023-01-23T09:08:36.203Z,9.63
2023-01-23T09:11:08.166Z,11.02
2023-01-23T09:13:34.922Z,9.15
2023-01-23T09:16:02.388Z,9.75
2023-01-23T09:18:29.583Z,9.55
2023-01-23T09:20:56.716Z,10.15
2023-01-23T09:23:23.902Z,10.52
2023-01-23T09:25:51.082Z,9.13
2023-01-23T09:28:17.863Z,9.35
2023-01-23T09:30:44.737Z,10.05
2023-01-23T09:33:11.522Z,9.48
2023-01-23T09:35:38.255Z,9.18
2023-01-23T09:38:07.240Z,11.27
2023-01-23T09:40:46.138Z,9.80
2023-01-23T09:43:26.157Z,10.40
2023-01-23T09:46:20.612Z,10.02
2023-01-23T09:48:54.077Z,10.05
2023-01-23T09:52:05.621Z,8.75
2023-01-23T09:54:44.654Z,9.05
2023-01-23T09:57:22.535Z,10.23
2023-01-23T10:00:05.364Z,11.70
2023-01-23T10:05:03.139Z,9.43
2023-01-23T10:07:48.647Z,10.48
2023-01-23T10:10:45.685Z,10.73
2023-01-23T10:13:40.169Z,10.95
2023-01-23T10:16:35.356Z,10.13
2023-01-23T10:19:43.406Z,10.13
2023-01-23T10:24:57.007Z,9.07
2023-01-23T10:27:32.865Z,10.90
2023-01-23T10:30:10.324Z,8.75
2023-01-23T10:32:57.438Z,10.65
2023-01-23T10:35:27.580Z,10.15
2023-01-23T10:38:31.786Z,8.80
2023-01-23T10:41:13.760Z,10.50
2023-01-23T10:43:42.070Z,10.75
2023-01-23T10:46:11.718Z,9.38
2023-01-23T10:48:46.327Z,9.85
2023-01-23T10:51:33.143Z,11.20
2023-01-23T10:54:16.964Z,10.90
2023-01-23T10:57:00.358Z,11.10
2023-01-23T10:59:53.191Z,9.32
2023-01-23T11:02:31.776Z,9.95
2023-01-23T11:04:59.858Z,10.75
2023-01-23T11:07:32.914Z,11.07
2023-01-23T11:10:21.679Z,10.45
2023-01-23T11:12:54.330Z,11.00
2023-01-23T11:15:27.926Z,10.38
2023-01-23T11:18:01.899Z,9.48
2023-01-23T11:20:29.015Z,10.93
2023-01-23T11:23:05.435Z,10.10
2023-01-23T11:25:44.378Z,7.97
2023-01-23T11:28:20.647Z,9.40
2023-01-23T11:31:14.484Z,11.13
2023-01-23T11:33:59.228Z,9.10
2023-01-23T11:36:39.587Z,9.30
2023-01-23T11:39:17.399Z,8.95
2023-01-23T11:41:46.508Z,10.38
2023-01-23T11:44:18.590Z,8.63
2023-01-23T11:47:17.343Z,9.02
2023-01-23T11:50:12.196Z,9.65
2023-01-23T11:53:11.163Z,9.38
2023-01-23T11:55:40.128Z,8.88
2023-01-23T11:58:22.161Z,7.97
2023-01-23T12:01:16.220Z,8.88
2023-01-23T12:03:52.389Z,8.90
2023-01-23T12:06:31.646Z,9.73
2023-01-23T12:09:12.862Z,8.50
2023-01-23T12:11:51.617Z,8.32
2023-01-23T12:14:25.475Z,9.10
2023-01-23T12:17:02.801Z,8.75
2023-01-23T12:19:41.733Z,9.18
2023-01-23T12:22:33.296Z,9.23
2023-01-23T12:25:18.620Z,9.35
2023-01-23T12:27:48.685Z,7.53
2023-01-23T12:30:30.280Z,8.73
2023-01-23T12:33:15.423Z,8.60
2023-01-23T12:36:13.978Z,8.40
2023-01-23T12:39:16.077Z,6.78
2023-01-23T12:44:20.536Z,6.32
2023-01-23T12:47:16.256Z,7.43
2023-01-23T12:49:49.097Z,7.55
2023-01-23T12:52:27.948Z,7.68
2023-01-23T12:55:22.309Z,7.18
2023-01-23T12:57:59.865Z,8.00
2023-01-23T13:00:52.849Z,7.78
2023-01-23T13:03:46.129Z,4.55
2023-01-23T13:06:24.948Z,3.15
2023-01-23T13:09:17.839Z,2.80
2023-01-23T13:12:08.170Z,3.17
2023-01-23T13:14:52.561Z,2.72
2023-01-23T13:17:36.639Z,2.22
2023-01-23T13:20:40.154Z,2.13
2023-01-23T13:23:24.992Z,1.58
2023-01-23T13:26:19.584Z,1.77
2023-01-23T13:28:48.273Z,1.98
2023-01-23T13:31:35.066Z,1.80
2023-01-23T13:34:15.315Z,2.20
2023-01-23T13:36:44.087Z,2.80
2023-01-23T13:39:30.107Z,2.50
2023-01-23T13:42:12.469Z,2.28
2023-01-23T13:45:24.551Z,2.55
2023-01-23T14:22:55.135Z,2.05
2023-01-23T14:25:22.834Z,2.00
2023-01-23T14:28:01.674Z,1.92
2023-01-23T14:30:30.408Z,2.20
2023-01-23T14:32:59.583Z,2.28
2023-01-23T14:35:28.740Z,1.73
2023-01-23T14:38:02.283Z,2.03
2023-01-23T14:40:37.281Z,1.88
2023-01-23T14:43:19.037Z,1.63
2023-01-23T14:45:55.697Z,1.45
2023-01-23T14:48:22.805Z,2.25
2023-01-23T14:51:06.728Z,2.25
2023-01-23T14:53:33.608Z,1.50
2023-01-23T14:56:02.102Z,2.25
2023-01-23T14:58:30.618Z,2.10
2023-01-23T15:00:59.249Z,2.35
2023-01-23T15:03:57.545Z,2.08
2023-01-23T15:06:25.304Z,2.55
2023-01-23T15:08:52.530Z,2.40
2023-01-23T15:11:28.245Z,2.30
2023-01-23T15:14:01.692Z,3.63
2023-01-23T15:16:34.205Z,2.70
2023-01-23T15:19:07.983Z,2.83
2023-01-23T15:21:36.620Z,2.58
2023-01-23T15:24:14.755Z,2.60
2023-01-23T15:26:44.587Z,2.25
2023-01-23T15:29:11.262Z,3.30
2023-01-23T15:31:50.281Z,2.72
2023-01-23T15:34:17.170Z,2.33
2023-01-23T15:36:51.880Z,2.67
2023-01-23T15:39:28.247Z,2.95
2023-01-23T15:42:00.584Z,3.45
2023-01-23T15:44:31.273Z,3.03
2023-01-23T15:47:03.981Z,4.07
2023-01-23T15:49:33.132Z,3.78
2023-01-23T15:52:22.123Z,3.13
2023-01-23T15:55:04.894Z,3.15
2023-01-23T15:57:31.836Z,2.78
2023-01-23T16:00:01.393Z,2.78
2023-01-23T16:02:31.526Z,2.88
2023-01-23T16:05:01.224Z,3.30
2023-01-23T16:07:34.169Z,2.67
2023-01-23T16:10:02.619Z,2.72
2023-01-23T16:12:30.506Z,2.80
2023-01-23T16:14:57.788Z,2.30
2023-01-23T16:17:24.749Z,3.08
2023-01-23T16:19:54.597Z,2.67
2023-01-23T16:22:26.680Z,3.63
2023-01-23T16:27:27.668Z,2.70
2023-01-23T16:29:55.834Z,3.28
2023-01-23T16:32:25.323Z,3.05
2023-01-23T16:34:52.250Z,3.30
2023-01-23T16:37:19.120Z,3.30
2023-01-23T16:39:50.620Z,3.78
2023-01-23T16:42:23.081Z,3.05
2023-01-23T16:44:51.090Z,3.35
2023-01-23T16:47:19.486Z,4.60
2023-01-23T16:49:52.698Z,2.90
2023-01-23T16:52:22.482Z,3.60
2023-01-23T16:54:53.587Z,3.28
2023-01-23T16:57:21.363Z,3.20
2023-01-23T16:59:50.126Z,3.85
2023-01-23T17:02:27.939Z,4.70
2023-01-23T17:04:57.577Z,3.88
2023-01-23T17:07:24.534Z,3.05
2023-01-23T17:09:57.514Z,2.92
2023-01-23T17:12:30.080Z,3.65
2023-01-23T17:14:57.377Z,3.90
2023-01-23T17:17:32.266Z,2.97
2023-01-23T17:20:01.315Z,5.38
2023-01-23T17:22:33.915Z,3.80
2023-01-23T17:25:00.745Z,3.50
2023-01-23T17:27:27.565Z,3.78
2023-01-23T17:29:54.599Z,3.85
2023-01-23T17:32:46.947Z,4.00
2023-01-23T17:35:24.360Z,3.03
2023-01-23T17:37:51.992Z,4.35
2023-01-23T17:40:25.147Z,3.33
2023-01-23T17:42:53.865Z,3.85
2023-01-23T17:45:24.352Z,3.63
2023-01-23T17:47:54.514Z,3.72
2023-01-23T17:50:24.178Z,3.70
2023-01-23T17:52:53.529Z,3.30
2023-01-23T17:55:28.400Z,3.90
2023-01-23T17:57:55.578Z,3.80
2023-01-23T18:00:42.117Z,3.90
2023-01-23T18:03:12.975Z,4.22
2023-01-23T18:05:39.917Z,3.53
2023-01-23T18:08:07.116Z,3.47
2023-01-23T18:10:36.377Z,3.65
2023-01-23T18:13:30.068Z,4.43
2023-01-23T18:16:05.984Z,5.18
2023-01-23T18:18:35.647Z,4.22
2023-01-23T18:21:05.924Z,3.80
2023-01-23T18:23:37.168Z,4.85
2023-01-23T18:26:43.532Z,4.05
2023-01-23T18:29:10.263Z,4.28
2023-01-23T18:31:58.758Z,4.07
2023-01-23T18:34:40.653Z,3.92
2023-01-23T18:37:16.287Z,4.32
2023-01-23T18:39:52.072Z,5.43
2023-01-23T18:42:35.718Z,4.68
2023-01-23T18:45:10.860Z,5.00
2023-01-23T18:47:38.206Z,5.00
2023-01-23T18:50:07.442Z,4.68
2023-01-23T18:52:43.972Z,5.15
2023-01-23T18:55:20.002Z,5.35
2023-01-23T18:57:59.986Z,5.45
2023-01-23T19:00:34.566Z,4.80
2023-01-23T19:03:12.260Z,3.63
2023-01-23T19:05:39.393Z,4.18
2023-01-23T19:08:07.539Z,4.72
2023-01-23T19:10:48.134Z,4.28
2023-01-23T19:13:29.677Z,5.68
2023-01-23T19:16:30.412Z,5.38
2023-01-23T19:19:14.512Z,4.63
2023-01-23T19:21:43.736Z,5.10
2023-01-23T19:24:11.724Z,6.07
2023-01-23T19:26:41.330Z,6.10
2023-01-23T19:29:20.967Z,5.10
2023-01-23T19:32:04.170Z,5.57
2023-01-23T19:34:31.681Z,4.95
2023-01-23T19:36:58.569Z,5.75
2023-01-23T19:39:25.429Z,5.68
2023-01-23T19:41:53.531Z,5.85
2023-01-23T19:44:25.005Z,5.60
2023-01-23T19:46:52.660Z,5.65
2023-01-23T19:49:19.743Z,5.72
2023-01-23T19:51:47.739Z,6.15
2023-01-23T19:54:16.556Z,5.40
2023-01-23T19:56:43.565Z,6.15
2023-01-23T19:59:10.715Z,5.97
2023-01-23T20:01:43.634Z,5.80
2023-01-23T20:04:16.220Z,7.07
2023-01-23T20:06:45.597Z,6.05
2023-01-23T20:09:14.739Z,5.97
2023-01-23T20:11:44.443Z,5.95
2023-01-23T20:14:11.515Z,7.25
2023-01-23T20:16:40.516Z,5.90
2023-01-23T20:19:13.872Z,6.15
2023-01-23T20:21:40.636Z,6.47
2023-01-23T20:24:08.446Z,7.68
2023-01-23T20:26:39.914Z,7.10
2023-01-23T20:29:08.837Z,6.90
2023-01-23T20:31:38.967Z,6.20
2023-01-23T20:34:07.140Z,5.70
2023-01-23T20:36:34.356Z,6.97
2023-01-23T20:39:01.395Z,7.82
2023-01-23T20:41:28.241Z,7.13
2023-01-23T20:43:55.272Z,6.97
2023-01-23T20:46:22.313Z,7.65
2023-01-23T20:48:49.082Z,7.00
2023-01-23T20:51:17.551Z,7.00
2023-01-23T20:53:45.327Z,8.02
2023-01-23T20:56:16.023Z,8.52
2023-01-23T20:59:13.597Z,7.57
2023-01-23T21:02:02.406Z,8.48
2023-01-23T21:04:37.258Z,7.25
2023-01-23T21:07:04.775Z,7.50
2023-01-23T21:09:35.990Z,8.15
2023-01-23T21:12:02.705Z,8.20
2023-01-23T21:14:30.337Z,9.43
2023-01-23T21:16:58.755Z,9.48
2023-01-23T21:19:25.464Z,8.20
2023-01-23T21:21:52.911Z,10.00
2023-01-23T21:24:19.779Z,10.13
2023-01-23T21:26:46.751Z,11.55
2023-01-23T21:29:13.761Z,10.93
2023-01-23T21:31:41.019Z,9.98
2023-01-23T21:34:10.422Z,10.00
2023-01-23T21:36:37.607Z,10.77
2023-01-23T21:39:06.674Z,10.07
2023-01-23T21:41:35.002Z,11.63
2023-01-23T21:44:01.959Z,11.90
2023-01-23T21:46:28.851Z,11.18
2023-01-23T21:48:55.815Z,10.10
2023-01-23T21:51:25.415Z,10.23
2023-01-23T21:53:52.381Z,10.00
2023-01-23T21:56:22.086Z,9.60
2023-01-23T21:58:49.842Z,10.60
2023-01-23T22:01:38.297Z,10.13
2023-01-23T22:04:07.472Z,10.82
2023-01-23T22:06:35.749Z,9.15
2023-01-23T22:09:03.319Z,9.20
2023-01-23T22:11:30.727Z,11.07
2023-01-23T22:13:57.716Z,10.65
2023-01-23T22:16:35.971Z,8.20
2023-01-23T22:19:14.736Z,9.38
2023-01-23T22:21:41.699Z,10.65
2023-01-23T22:24:08.758Z,10.65
2023-01-23T22:26:35.596Z,9.10
2023-01-23T22:29:02.724Z,9.57
2023-01-23T22:31:29.521Z,10.60
2023-01-23T22:33:57.627Z,10.93
2023-01-23T22:36:24.611Z,10.50
2023-01-23T22:38:53.064Z,8.38
2023-01-23T22:41:20.597Z,9.90
2023-01-23T22:43:51.795Z,10.07
2023-01-23T22:46:19.430Z,9.82
2023-01-23T22:48:46.660Z,9.02
2023-01-23T22:51:25.609Z,9.00
2023-01-23T22:53:54.707Z,9.32
2023-01-23T22:56:22.547Z,9.07
2023-01-23T22:58:51.484Z,10.30
2023-01-23T23:01:23.763Z,8.95
2023-01-23T23:03:51.152Z,9.43
2023-01-23T23:06:19.447Z,9.10
2023-01-23T23:08:48.666Z,7.70
2023-01-23T23:11:25.020Z,9.20
2023-01-23T23:13:52.497Z,9.27
2023-01-23T23:16:31.493Z,9.57
2023-01-23T23:19:01.808Z,10.00
2023-01-23T23:21:33.423Z,9.93
2023-01-23T23:24:03.188Z,9.70
2023-01-23T23:26:31.503Z,9.77
2023-01-23T23:29:00.181Z,7.80
2023-01-23T23:31:27.219Z,9.52
2023-01-23T23:33:54.223Z,9.05
2023-01-23T23:36:23.788Z,10.13
2023-01-23T23:38:50.531Z,8.45
2023-01-23T23:41:17.831Z,9.38
2023-01-23T23:43:46.513Z,10.63
2023-01-23T23:46:14.450Z,11.00
2023-01-23T23:48:48.096Z,8.93
2023-01-23T23:51:18.702Z,8.88
2023-01-23T23:53:46.782Z,8.68
2023-01-23T23:56:25.522Z,10.27
2023-01-23T23:58:52.554Z,8.20
